createdAt,value
2024-04-30T00:00:02.601Z,1.10
2024-04-30T00:02:04.585Z,2.03
2024-04-30T00:04:09.241Z,1.02
2024-04-30T00:06:11.384Z,1.67
2024-04-30T00:08:15.808Z,2.15
2024-04-30T00:10:17.726Z,1.55
2024-04-30T00:12:22.321Z,1.58
2024-04-30T00:14:26.732Z,1.27
2024-04-30T00:16:31.178Z,1.20
2024-04-30T00:18:33.188Z,1.85
2024-04-30T00:20:37.775Z,1.33
2024-04-30T00:22:39.560Z,2.28
2024-04-30T00:24:43.961Z,1.52
2024-04-30T00:26:45.797Z,1.90
2024-04-30T00:28:50.172Z,1.75
2024-04-30T00:30:54.577Z,2.00
2024-04-30T00:32:58.976Z,1.45
2024-04-30T00:35:00.988Z,2.17
2024-04-30T00:37:05.479Z,1.75
2024-04-30T00:39:09.409Z,2.35
2024-04-30T00:41:13.924Z,1.52
2024-04-30T00:43:15.697Z,2.08
2024-04-30T00:45:20.146Z,1.05
2024-04-30T00:47:24.808Z,2.70
2024-04-30T00:49:29.457Z,0.98
2024-04-30T00:51:31.861Z,1.52
2024-04-30T00:53:36.761Z,1.92
2024-04-30T00:55:39.164Z,1.88
2024-04-30T00:57:44.320Z,1.23
2024-04-30T00:59:46.935Z,1.77
2024-04-30T01:01:51.496Z,0.88
2024-04-30T01:03:55.957Z,1.75
2024-04-30T01:06:00.723Z,0.75
2024-04-30T01:08:02.606Z,1.08
2024-04-30T01:10:07.353Z,1.38
2024-04-30T01:12:09.608Z,2.40
2024-04-30T01:14:13.969Z,1.55
2024-04-30T01:16:15.764Z,0.82
2024-04-30T01:18:20.323Z,1.25
2024-04-30T01:20:24.687Z,1.58
2024-04-30T01:22:29.194Z,1.40
2024-04-30T01:24:36.679Z,1.10
2024-04-30T01:26:41.103Z,1.70
2024-04-30T01:28:43.024Z,2.55
2024-04-30T01:30:49.174Z,1.00
2024-04-30T01:32:51.994Z,1.55
2024-04-30T01:34:56.602Z,2.65
2024-04-30T01:36:58.404Z,2.15
2024-04-30T01:39:02.796Z,1.20
2024-04-30T01:41:07.389Z,3.00
2024-04-30T01:43:11.899Z,1.70
2024-04-30T01:45:13.705Z,1.42
2024-04-30T01:47:18.106Z,2.75
2024-04-30T01:49:20.059Z,2.72
2024-04-30T01:51:24.608Z,1.75
2024-04-30T01:53:26.395Z,2.03
2024-04-30T01:55:30.899Z,1.35
2024-04-30T01:57:35.526Z,2.17
2024-04-30T01:59:44.321Z,1.33
2024-04-30T02:01:46.224Z,1.33
2024-04-30T02:03:50.686Z,1.08
2024-04-30T02:05:52.502Z,1.85
2024-04-30T02:07:56.946Z,2.08
2024-04-30T02:09:58.829Z,1.50
2024-04-30T02:12:03.440Z,1.42
2024-04-30T02:14:07.913Z,1.50
2024-04-30T02:16:12.349Z,1.55
2024-04-30T02:18:14.433Z,1.50
2024-04-30T02:20:18.904Z,2.53
2024-04-30T02:22:20.882Z,1.30
2024-04-30T02:24:25.658Z,2.28
2024-04-30T02:26:27.480Z,0.82
2024-04-30T02:28:32.011Z,0.90
2024-04-30T02:30:55.218Z,1.40
2024-04-30T02:33:15.795Z,0.90
2024-04-30T02:35:20.363Z,1.17
2024-04-30T02:37:22.282Z,2.00
2024-04-30T02:39:26.845Z,0.73
2024-04-30T02:41:31.294Z,1.13
2024-04-30T02:43:33.195Z,1.17
2024-04-30T02:45:40.239Z,1.25
2024-04-30T02:47:42.242Z,1.92
2024-04-30T02:49:46.818Z,1.35
2024-04-30T02:51:48.563Z,1.13
2024-04-30T02:53:53.161Z,4.05
2024-04-30T02:55:55.119Z,1.85
2024-04-30T02:57:59.663Z,1.00
2024-04-30T03:00:01.758Z,1.00
2024-04-30T03:02:08.893Z,1.58
2024-04-30T03:04:11.064Z,2.40
2024-04-30T03:06:15.623Z,0.93
2024-04-30T03:08:17.958Z,1.25
2024-04-30T03:10:22.482Z,1.05
2024-04-30T03:12:24.287Z,1.25
2024-04-30T03:14:28.681Z,2.03
2024-04-30T03:16:30.681Z,0.88
2024-04-30T03:18:35.158Z,1.38
2024-04-30T03:20:39.507Z,1.73
2024-04-30T03:22:41.515Z,1.40
2024-04-30T03:24:43.312Z,1.25
2024-04-30T03:26:47.803Z,2.60
2024-04-30T03:28:49.574Z,2.92
2024-04-30T03:30:55.129Z,2.28
2024-04-30T03:32:58.061Z,1.50
2024-04-30T03:35:05.275Z,1.67
2024-04-30T03:37:09.755Z,1.08
2024-04-30T03:39:11.935Z,1.48
2024-04-30T03:41:16.967Z,1.92
2024-04-30T03:43:21.377Z,1.95
2024-04-30T03:45:23.253Z,2.15
2024-04-30T03:47:27.849Z,1.15
2024-04-30T03:49:32.578Z,1.45
2024-04-30T03:51:37.205Z,1.65
2024-04-30T03:53:41.760Z,1.38
2024-04-30T03:55:43.648Z,1.73
2024-04-30T03:57:48.080Z,1.73
2024-04-30T03:59:50.000Z,1.92
2024-04-30T04:01:54.421Z,1.30
2024-04-30T04:03:56.210Z,3.05
2024-04-30T04:06:00.739Z,3.20
2024-04-30T04:08:05.545Z,2.17
2024-04-30T04:10:10.403Z,2.10
2024-04-30T04:12:30.654Z,1.95
2024-04-30T04:14:48.652Z,1.17
2024-04-30T04:16:53.460Z,2.13
2024-04-30T04:18:57.962Z,2.03
2024-04-30T04:21:00.126Z,1.42
2024-04-30T04:23:07.442Z,1.98
2024-04-30T04:25:12.124Z,1.40
2024-04-30T04:27:13.939Z,2.35
2024-04-30T04:29:18.502Z,2.30
2024-04-30T04:31:20.415Z,1.67
2024-04-30T04:33:24.835Z,1.55
2024-04-30T04:35:26.692Z,1.77
2024-04-30T04:37:31.140Z,1.55
2024-04-30T04:39:35.678Z,1.88
2024-04-30T04:41:40.295Z,2.35
2024-04-30T04:43:42.097Z,2.42
2024-04-30T04:45:46.674Z,2.47
2024-04-30T04:47:48.592Z,4.13
2024-04-30T04:49:53.068Z,2.08
2024-04-30T04:51:54.876Z,2.45
2024-04-30T04:53:59.940Z,2.17
2024-04-30T04:56:04.592Z,1.23
2024-04-30T04:58:09.065Z,2.17
2024-04-30T05:00:11.643Z,1.55
2024-04-30T05:02:16.259Z,4.20
2024-04-30T05:04:18.156Z,2.42
2024-04-30T05:06:22.678Z,2.92
2024-04-30T05:08:24.459Z,1.92
2024-04-30T05:10:28.855Z,3.55
2024-04-30T05:12:33.549Z,2.00
2024-04-30T05:14:37.961Z,2.08
2024-04-30T05:16:39.847Z,2.60
2024-04-30T05:18:44.340Z,2.83
2024-04-30T05:20:46.106Z,2.35
2024-04-30T05:22:50.656Z,2.83
2024-04-30T05:24:52.742Z,2.88
2024-04-30T05:26:57.211Z,3.03
2024-04-30T05:29:01.890Z,2.85
2024-04-30T05:31:06.590Z,2.97
2024-04-30T05:33:08.549Z,2.25
2024-04-30T05:35:14.245Z,3.92
2024-04-30T05:37:16.114Z,3.10
2024-04-30T05:39:20.593Z,2.60
2024-04-30T05:41:22.727Z,3.67
2024-04-30T05:43:27.146Z,3.88
2024-04-30T05:45:31.668Z,3.25
2024-04-30T05:47:36.091Z,4.22
2024-04-30T05:49:38.019Z,3.70
2024-04-30T05:51:43.055Z,2.88
2024-04-30T05:53:45.157Z,2.63
2024-04-30T05:55:49.596Z,3.22
2024-04-30T05:57:51.567Z,2.33
2024-04-30T05:59:55.970Z,4.13
2024-04-30T06:02:00.567Z,3.83
2024-04-30T06:04:05.171Z,2.88
2024-04-30T06:06:08.595Z,3.08
2024-04-30T06:08:13.023Z,3.60
2024-04-30T06:10:15.021Z,4.13
2024-04-30T06:12:19.620Z,3.97
2024-04-30T06:14:24.002Z,2.65
2024-04-30T06:16:29.672Z,3.45
2024-04-30T06:18:34.164Z,3.08
2024-04-30T06:20:40.198Z,3.20
2024-04-30T06:22:42.093Z,2.50
2024-04-30T06:24:47.222Z,3.45
2024-04-30T06:26:48.994Z,3.25
2024-04-30T06:28:54.151Z,2.75
2024-04-30T06:30:55.985Z,4.03
2024-04-30T06:33:00.714Z,3.17
2024-04-30T06:35:05.863Z,4.47
2024-04-30T06:37:10.506Z,5.65
2024-04-30T06:39:12.372Z,3.33
2024-04-30T06:41:18.266Z,2.72
2024-04-30T06:43:20.066Z,4.30
2024-04-30T06:45:24.591Z,2.42
2024-04-30T06:47:26.639Z,3.55
2024-04-30T06:49:31.119Z,1.67
2024-04-30T06:51:35.637Z,3.38
2024-04-30T06:53:40.384Z,3.05
2024-04-30T06:55:42.208Z,3.13
2024-04-30T06:57:46.652Z,4.72
2024-04-30T06:59:48.639Z,3.03
2024-04-30T07:01:53.004Z,2.20
2024-04-30T07:03:54.841Z,3.05
2024-04-30T07:05:59.373Z,3.67
2024-04-30T07:08:04.831Z,3.40
2024-04-30T07:10:09.883Z,3.03
2024-04-30T07:12:12.805Z,4.07
2024-04-30T07:14:17.411Z,2.67
2024-04-30T07:16:19.244Z,2.50
2024-04-30T07:18:24.020Z,2.75
2024-04-30T07:20:26.811Z,4.47
2024-04-30T07:22:31.324Z,3.10
2024-04-30T07:24:35.816Z,4.50
2024-04-30T07:26:44.625Z,4.13
2024-04-30T07:28:46.552Z,4.28
2024-04-30T07:30:51.047Z,3.53
2024-04-30T07:32:52.982Z,4.65
2024-04-30T07:34:57.582Z,4.20
2024-04-30T07:36:59.455Z,6.65
2024-04-30T07:39:03.878Z,4.25
2024-04-30T07:41:08.303Z,3.33
2024-04-30T07:43:14.461Z,3.50
2024-04-30T07:45:16.407Z,3.45
2024-04-30T07:47:20.983Z,4.70
2024-04-30T07:49:22.763Z,9.23
2024-04-30T07:51:27.153Z,18.95
2024-04-30T07:53:28.938Z,20.42
2024-04-30T07:55:33.747Z,21.30
2024-04-30T07:57:38.258Z,21.27
2024-04-30T07:59:42.671Z,20.52
2024-04-30T08:01:44.470Z,19.20
2024-04-30T08:03:49.491Z,14.68
2024-04-30T08:05:53.507Z,14.68
2024-04-30T08:07:58.217Z,15.90
2024-04-30T08:10:00.305Z,9.27
2024-04-30T08:12:04.856Z,13.65
2024-04-30T08:14:09.261Z,9.43
2024-04-30T08:16:14.674Z,7.70
2024-04-30T08:18:16.556Z,6.47
2024-04-30T08:20:20.934Z,11.38
2024-04-30T08:22:22.756Z,8.73
2024-04-30T08:24:27.284Z,6.05
2024-04-30T08:26:29.342Z,6.40
2024-04-30T08:28:33.911Z,4.20
2024-04-30T08:30:39.026Z,3.95
2024-04-30T08:32:43.993Z,5.47
2024-04-30T08:34:45.962Z,5.30
2024-04-30T08:36:50.656Z,2.72
2024-04-30T08:38:52.559Z,6.65
2024-04-30T08:40:58.417Z,4.15
2024-04-30T08:43:00.212Z,5.20
2024-04-30T08:45:05.701Z,5.22
2024-04-30T08:47:10.740Z,6.15
2024-04-30T08:49:23.906Z,5.55
2024-04-30T08:51:30.836Z,6.70
2024-04-30T08:53:37.152Z,7.00
2024-04-30T08:55:40.290Z,5.60
2024-04-30T08:57:45.185Z,6.30
2024-04-30T08:59:47.054Z,5.65
2024-04-30T09:01:54.989Z,4.63
2024-04-30T09:04:00.655Z,6.93
2024-04-30T09:06:06.396Z,6.18
2024-04-30T09:08:08.252Z,6.63
2024-04-30T09:10:12.783Z,6.80
2024-04-30T09:12:14.666Z,6.68
2024-04-30T09:14:19.134Z,9.02
2024-04-30T09:16:21.004Z,11.20
2024-04-30T09:18:25.482Z,7.05
2024-04-30T09:20:31.810Z,6.32
2024-04-30T09:22:36.393Z,9.65
2024-04-30T09:24:46.168Z,8.95
2024-04-30T09:26:53.705Z,7.13
2024-04-30T09:28:55.631Z,5.63
2024-04-30T09:31:00.701Z,10.68
2024-04-30T09:33:07.321Z,6.50
2024-04-30T09:35:18.389Z,7.00
2024-04-30T09:37:26.063Z,11.02
2024-04-30T09:39:30.437Z,7.80
2024-04-30T09:41:35.459Z,8.63
2024-04-30T09:43:37.538Z,5.68
2024-04-30T09:45:42.071Z,9.43
2024-04-30T09:47:44.204Z,12.43
2024-04-30T09:49:49.315Z,8.02
2024-04-30T09:51:55.209Z,8.02
2024-04-30T09:54:02.532Z,7.00
2024-04-30T09:56:06.574Z,10.88
2024-04-30T09:58:11.678Z,10.32
2024-04-30T10:00:15.260Z,9.27
2024-04-30T10:02:21.437Z,10.23
2024-04-30T10:04:24.368Z,8.70
2024-04-30T10:06:29.523Z,4.47
2024-04-30T10:08:31.624Z,6.22
2024-04-30T10:10:38.829Z,10.43
2024-04-30T10:12:40.747Z,5.07
2024-04-30T10:14:45.143Z,5.20
2024-04-30T10:16:55.740Z,5.25
2024-04-30T10:19:06.636Z,5.85
2024-04-30T10:21:11.534Z,6.70
2024-04-30T10:23:15.904Z,4.53
2024-04-30T10:25:21.273Z,5.15
2024-04-30T10:27:28.384Z,5.60
2024-04-30T10:29:30.234Z,4.93
2024-04-30T10:31:34.761Z,3.97
2024-04-30T10:33:36.832Z,2.88
2024-04-30T10:35:44.279Z,4.30
2024-04-30T10:37:47.292Z,3.55
2024-04-30T10:39:51.911Z,6.38
2024-04-30T10:41:53.792Z,4.30
2024-04-30T10:44:03.455Z,2.90
2024-04-30T10:46:08.861Z,5.32
2024-04-30T10:48:13.728Z,5.82
2024-04-30T10:50:19.127Z,4.65
2024-04-30T10:52:24.859Z,4.25
2024-04-30T10:54:27.799Z,3.13
2024-04-30T10:56:32.227Z,3.63
2024-04-30T10:58:34.172Z,3.13
2024-04-30T11:00:47.121Z,3.55
2024-04-30T11:02:55.510Z,4.80
2024-04-30T11:05:00.707Z,4.65
2024-04-30T11:07:02.905Z,4.55
2024-04-30T11:09:09.102Z,3.42
2024-04-30T11:11:11.402Z,3.17
2024-04-30T11:13:16.009Z,4.07
2024-04-30T11:15:17.797Z,3.80
2024-04-30T11:17:26.833Z,4.13
2024-04-30T11:19:28.817Z,3.53
2024-04-30T11:21:33.408Z,4.68
2024-04-30T11:23:35.197Z,3.65
2024-04-30T11:25:39.768Z,3.35
2024-04-30T11:27:41.566Z,3.10
2024-04-30T11:29:46.047Z,5.22
2024-04-30T11:31:47.856Z,3.58
2024-04-30T11:33:54.963Z,3.47
2024-04-30T11:35:56.795Z,3.28
2024-04-30T11:38:01.476Z,4.70
2024-04-30T11:40:03.556Z,4.55
2024-04-30T11:42:18.100Z,3.78
2024-04-30T11:44:25.905Z,3.92
2024-04-30T11:46:30.479Z,3.78
2024-04-30T11:48:33.994Z,3.67
2024-04-30T11:50:41.369Z,5.30
2024-04-30T11:52:43.259Z,3.42
2024-04-30T11:54:47.806Z,3.45
2024-04-30T11:56:49.703Z,5.80
2024-04-30T11:58:54.176Z,4.32
2024-04-30T12:00:56.319Z,2.97
2024-04-30T12:03:01.025Z,3.33
2024-04-30T12:05:03.179Z,3.67
2024-04-30T12:07:10.416Z,3.45
2024-04-30T12:09:12.512Z,3.60
2024-04-30T12:11:17.243Z,4.05
2024-04-30T12:13:19.725Z,3.25
2024-04-30T12:15:24.281Z,4.40
2024-04-30T12:17:27.596Z,4.63
2024-04-30T12:19:32.384Z,3.95
2024-04-30T12:21:34.215Z,3.25
2024-04-30T12:23:42.871Z,3.53
2024-04-30T12:25:45.515Z,4.20
2024-04-30T12:27:49.953Z,4.00
2024-04-30T12:29:51.731Z,4.00
2024-04-30T12:31:56.428Z,3.88
2024-04-30T12:33:58.271Z,3.85
2024-04-30T12:36:02.667Z,3.50
2024-04-30T12:38:04.668Z,2.47
2024-04-30T12:40:12.297Z,3.10
2024-04-30T12:42:14.191Z,3.92
2024-04-30T12:44:18.627Z,4.43
2024-04-30T12:46:20.441Z,4.05
2024-04-30T12:48:24.948Z,3.00
2024-04-30T12:50:26.747Z,3.92
2024-04-30T12:52:31.246Z,2.92
2024-04-30T12:54:33.610Z,4.03
2024-04-30T12:56:40.646Z,3.00
2024-04-30T12:58:42.424Z,4.88
2024-04-30T13:00:53.003Z,2.50
2024-04-30T13:02:54.903Z,3.05
2024-04-30T13:04:59.603Z,6.97
2024-04-30T13:07:02.574Z,2.97
2024-04-30T13:09:07.538Z,4.05
2024-04-30T13:11:10.045Z,5.25
2024-04-30T13:13:17.797Z,6.38
2024-04-30T13:15:19.622Z,4.35
2024-04-30T13:17:25.301Z,4.97
2024-04-30T13:19:27.134Z,2.85
2024-04-30T13:21:31.575Z,2.70
2024-04-30T13:23:35.170Z,5.03
2024-04-30T13:25:39.702Z,4.03
2024-04-30T13:27:41.644Z,2.13
2024-04-30T13:29:48.804Z,3.25
2024-04-30T13:31:50.647Z,3.30
2024-04-30T13:33:55.076Z,4.43
2024-04-30T13:35:56.884Z,3.83
2024-04-30T13:38:01.285Z,4.88
2024-04-30T13:40:03.267Z,4.22
2024-04-30T13:42:08.355Z,5.65
2024-04-30T13:44:10.204Z,4.07
2024-04-30T13:46:18.393Z,4.47
2024-04-30T13:48:20.314Z,5.30
2024-04-30T13:50:24.722Z,4.40
2024-04-30T13:52:26.532Z,5.35
2024-04-30T13:54:31.018Z,4.55
2024-04-30T13:56:32.802Z,4.90
2024-04-30T13:58:37.188Z,3.30
2024-04-30T14:00:39.046Z,5.50
2024-04-30T14:02:47.065Z,3.72
2024-04-30T14:04:50.258Z,3.25
2024-04-30T14:06:55.952Z,4.32
2024-04-30T14:08:57.864Z,3.63
2024-04-30T14:11:02.686Z,3.72
2024-04-30T14:13:06.392Z,3.25
2024-04-30T14:15:10.974Z,5.05
2024-04-30T14:17:12.805Z,6.57
2024-04-30T14:19:19.990Z,3.95
2024-04-30T14:21:21.876Z,5.80
2024-04-30T14:23:28.796Z,2.70
2024-04-30T14:25:30.632Z,4.18
2024-04-30T14:27:35.079Z,5.72
2024-04-30T14:29:36.948Z,4.80
2024-04-30T14:31:41.667Z,7.07
2024-04-30T14:33:43.603Z,3.58
2024-04-30T14:36:06.346Z,5.20
2024-04-30T14:38:10.962Z,3.85
2024-04-30T14:40:12.869Z,4.05
2024-04-30T14:42:17.278Z,4.82
2024-04-30T14:44:19.114Z,3.80
2024-04-30T14:46:23.560Z,3.97
2024-04-30T14:48:25.495Z,4.93
2024-04-30T14:50:29.981Z,4.22
2024-04-30T14:52:34.389Z,3.03
2024-04-30T14:54:38.933Z,4.20
2024-04-30T14:56:41.052Z,5.57
2024-04-30T14:58:45.708Z,5.03
2024-04-30T15:00:47.644Z,3.53
2024-04-30T15:02:52.156Z,5.97
2024-04-30T15:04:54.021Z,4.13
2024-04-30T15:06:58.406Z,3.85
2024-04-30T15:09:02.889Z,3.33
2024-04-30T15:11:07.488Z,6.05
2024-04-30T15:13:09.444Z,4.15
2024-04-30T15:15:13.918Z,4.53
2024-04-30T15:17:15.846Z,3.95
2024-04-30T15:19:20.510Z,2.50
2024-04-30T15:21:22.431Z,4.43
2024-04-30T15:23:26.855Z,3.75
2024-04-30T15:25:31.556Z,2.97
2024-04-30T15:27:36.599Z,5.07
2024-04-30T15:29:38.354Z,2.80
2024-04-30T15:31:42.907Z,3.65
2024-04-30T15:33:44.898Z,5.30
2024-04-30T15:35:49.398Z,5.13
2024-04-30T15:37:51.250Z,5.70
2024-04-30T15:39:55.900Z,3.65
2024-04-30T15:42:00.513Z,5.88
2024-04-30T15:44:05.100Z,5.28
2024-04-30T15:46:07.013Z,3.35
2024-04-30T15:48:11.799Z,4.93
2024-04-30T15:50:13.941Z,6.88
2024-04-30T15:52:18.677Z,4.00
2024-04-30T15:54:22.918Z,3.28
2024-04-30T15:56:27.625Z,3.60
2024-04-30T15:58:32.954Z,5.75
2024-04-30T16:00:37.464Z,4.28
2024-04-30T16:02:41.066Z,4.53
2024-04-30T16:04:45.507Z,5.03
2024-04-30T16:06:47.262Z,4.63
2024-04-30T16:08:51.640Z,4.95
2024-04-30T16:10:53.847Z,5.10
2024-04-30T16:12:58.632Z,7.05
2024-04-30T16:15:03.039Z,5.43
2024-04-30T16:17:07.788Z,4.40
2024-04-30T16:19:11.390Z,8.18
2024-04-30T16:21:16.071Z,3.92
2024-04-30T16:23:17.855Z,5.20
2024-04-30T16:25:22.279Z,3.85
2024-04-30T16:27:24.136Z,4.30
2024-04-30T16:29:28.588Z,5.45
2024-04-30T16:31:33.108Z,4.40
2024-04-30T16:33:37.638Z,5.45
2024-04-30T16:35:39.547Z,5.72
2024-04-30T16:37:43.926Z,5.13
2024-04-30T16:39:50.026Z,5.38
2024-04-30T16:41:54.411Z,4.18
2024-04-30T16:43:56.177Z,4.07
2024-04-30T16:46:01.078Z,5.75
2024-04-30T16:48:06.181Z,3.08
2024-04-30T16:50:10.668Z,3.03
2024-04-30T16:52:12.511Z,5.78
2024-04-30T16:54:17.797Z,4.95
2024-04-30T16:56:19.629Z,6.50
2024-04-30T16:58:24.019Z,6.30
2024-04-30T17:00:25.963Z,5.75
2024-04-30T17:02:30.385Z,5.13
2024-04-30T17:04:34.914Z,4.05
2024-04-30T17:06:46.727Z,5.32
2024-04-30T17:08:48.536Z,5.00
2024-04-30T17:10:53.002Z,4.53
2024-04-30T17:12:55.057Z,4.38
2024-04-30T17:14:59.533Z,5.00
2024-04-30T17:17:01.374Z,5.13
2024-04-30T17:19:07.166Z,5.25
2024-04-30T17:21:14.957Z,5.97
2024-04-30T17:23:19.422Z,5.75
2024-04-30T17:25:21.522Z,7.38
2024-04-30T17:27:27.630Z,5.80
2024-04-30T17:29:29.427Z,4.47
2024-04-30T17:31:35.369Z,5.57
2024-04-30T17:33:38.265Z,5.55
2024-04-30T17:35:42.699Z,5.60
2024-04-30T17:37:47.113Z,6.50
2024-04-30T17:39:51.584Z,6.88
2024-04-30T17:41:53.399Z,5.03
2024-04-30T17:43:57.955Z,6.43
2024-04-30T17:45:59.962Z,4.40
2024-04-30T17:48:04.607Z,5.20
2024-04-30T17:50:07.074Z,6.20
2024-04-30T17:52:11.457Z,5.22
2024-04-30T17:54:16.895Z,4.78
2024-04-30T17:56:22.525Z,3.72
2024-04-30T17:58:24.439Z,4.57
2024-04-30T18:00:28.913Z,4.53
2024-04-30T18:02:30.766Z,5.97
2024-04-30T18:04:35.207Z,4.53
2024-04-30T18:06:37.742Z,4.97
2024-04-30T18:08:42.202Z,6.10
2024-04-30T18:10:52.389Z,6.05
2024-04-30T18:12:58.925Z,6.15
2024-04-30T18:15:00.858Z,7.90
2024-04-30T18:17:05.394Z,6.95
2024-04-30T18:19:07.789Z,6.82
2024-04-30T18:21:12.654Z,6.03
2024-04-30T18:23:14.812Z,4.75
2024-04-30T18:25:19.190Z,6.95
2024-04-30T18:27:23.672Z,4.88
2024-04-30T18:29:28.117Z,4.35
2024-04-30T18:31:29.964Z,7.25
2024-04-30T18:33:34.590Z,4.45
2024-04-30T18:35:36.389Z,6.03
2024-04-30T18:37:40.968Z,4.45
2024-04-30T18:39:43.004Z,5.35
2024-04-30T18:41:47.913Z,4.47
2024-04-30T18:43:52.374Z,5.50
2024-04-30T18:45:56.972Z,3.97
2024-04-30T18:47:58.841Z,4.28
2024-04-30T18:50:03.552Z,6.78
2024-04-30T18:52:05.679Z,4.63
2024-04-30T18:54:10.288Z,4.35
2024-04-30T18:56:13.550Z,4.78
2024-04-30T18:58:17.927Z,5.13
2024-04-30T19:00:25.202Z,4.65
2024-04-30T19:02:28.274Z,5.22
2024-04-30T19:04:32.752Z,5.40
2024-04-30T19:06:34.958Z,4.72
2024-04-30T19:08:40.287Z,6.10
2024-04-30T19:10:42.068Z,4.68
2024-04-30T19:12:46.459Z,5.18
2024-04-30T19:14:49.388Z,5.05
2024-04-30T19:16:56.661Z,4.97
2024-04-30T19:18:58.994Z,5.90
2024-04-30T19:21:04.950Z,4.53
2024-04-30T19:23:06.760Z,5.88
2024-04-30T19:25:11.143Z,6.18
2024-04-30T19:27:17.746Z,6.80
2024-04-30T19:29:22.178Z,8.07
2024-04-30T19:31:23.955Z,5.10
2024-04-30T19:33:31.821Z,4.80
2024-04-30T19:35:33.689Z,7.07
2024-04-30T19:37:41.078Z,3.92
2024-04-30T19:41:48.906Z,6.25
2024-04-30T19:43:50.979Z,6.35
2024-04-30T19:45:55.545Z,6.05
2024-04-30T19:47:57.618Z,5.60
2024-04-30T19:50:04.774Z,5.30
2024-04-30T19:52:06.602Z,6.32
2024-04-30T19:54:11.247Z,6.22
2024-04-30T19:56:13.058Z,5.45
2024-04-30T19:58:17.447Z,5.85
2024-04-30T20:00:19.262Z,6.00
2024-04-30T20:02:24.705Z,6.43
2024-04-30T20:04:26.819Z,6.97
2024-04-30T20:06:34.247Z,6.57
2024-04-30T20:08:36.146Z,5.63
2024-04-30T20:10:40.612Z,5.63
2024-04-30T20:12:42.399Z,5.35
2024-04-30T20:14:47.098Z,7.75
2024-04-30T20:16:49.341Z,7.60
2024-04-30T20:18:54.150Z,5.25
2024-04-30T20:20:55.933Z,5.90
2024-04-30T20:23:03.410Z,4.47
2024-04-30T20:25:05.628Z,5.22
2024-04-30T20:27:10.116Z,5.53
2024-04-30T20:29:12.121Z,6.30
2024-04-30T20:31:16.616Z,6.43
2024-04-30T20:33:21.577Z,7.32
2024-04-30T20:35:26.481Z,6.00
2024-04-30T20:37:28.460Z,5.50
2024-04-30T20:39:35.474Z,7.90
2024-04-30T20:41:37.276Z,5.38
2024-04-30T20:43:41.928Z,5.13
2024-04-30T20:45:43.823Z,4.97
2024-04-30T20:47:48.263Z,5.88
2024-04-30T20:49:50.109Z,7.93
2024-04-30T20:51:54.896Z,5.85
2024-04-30T20:53:56.903Z,8.70
2024-04-30T20:56:04.027Z,7.05
2024-04-30T20:58:06.491Z,8.05
2024-04-30T21:00:11.409Z,6.65
2024-04-30T21:02:13.243Z,7.40
2024-04-30T21:04:17.804Z,6.03
2024-04-30T21:06:19.678Z,5.50
2024-04-30T21:08:26.438Z,5.75
2024-04-30T21:10:28.315Z,6.22
2024-04-30T21:12:35.390Z,6.80
2024-04-30T21:14:37.189Z,7.85
2024-04-30T21:16:41.811Z,6.43
2024-04-30T21:18:45.206Z,6.47
2024-04-30T21:20:49.690Z,6.47
2024-04-30T21:22:51.541Z,5.80
2024-04-30T21:24:56.260Z,5.65
2024-04-30T21:26:58.150Z,7.22
2024-04-30T21:29:05.681Z,6.55
2024-04-30T21:31:07.530Z,7.38
2024-04-30T21:33:12.238Z,4.43
2024-04-30T21:35:14.541Z,5.90
2024-04-30T21:37:18.938Z,4.90
2024-04-30T21:39:21.052Z,5.65
2024-04-30T21:41:25.750Z,7.10
2024-04-30T21:43:27.555Z,5.70
2024-04-30T21:45:34.653Z,5.38
2024-04-30T21:47:36.525Z,6.28
2024-04-30T21:49:41.043Z,7.40
2024-04-30T21:51:46.170Z,7.32
2024-04-30T21:53:51.384Z,5.75
2024-04-30T21:55:53.146Z,6.68
2024-04-30T21:57:57.544Z,6.25
2024-04-30T21:59:59.334Z,8.00
2024-04-30T22:02:06.603Z,8.60
2024-04-30T22:04:08.424Z,8.30
2024-04-30T22:06:12.882Z,6.40
2024-04-30T22:08:14.711Z,6.63
2024-04-30T22:10:19.206Z,5.72
2024-04-30T22:12:21.078Z,6.45
2024-04-30T22:14:25.486Z,6.15
2024-04-30T22:16:27.308Z,8.13
2024-04-30T22:18:36.675Z,9.80
2024-04-30T22:22:45.389Z,7.30
2024-04-30T22:24:47.271Z,6.32
2024-04-30T22:26:51.876Z,7.55
2024-04-30T22:28:53.656Z,6.30
2024-04-30T22:30:58.131Z,5.68
2024-04-30T22:33:00.080Z,8.35
2024-04-30T22:35:07.462Z,6.75
2024-04-30T22:37:09.948Z,6.15
2024-04-30T22:39:14.522Z,6.95
2024-04-30T22:41:16.359Z,6.88
2024-04-30T22:43:20.845Z,7.10
2024-04-30T22:45:22.658Z,6.57
2024-04-30T22:47:27.368Z,6.57
2024-04-30T22:49:30.245Z,7.70
2024-04-30T22:51:37.399Z,6.63
2024-04-30T22:53:47.443Z,7.93
2024-04-30T22:55:55.259Z,5.72
2024-04-30T22:57:57.153Z,7.65
2024-04-30T23:00:02.230Z,6.35
2024-04-30T23:02:04.273Z,6.00
2024-04-30T23:04:08.737Z,5.38
2024-04-30T23:06:10.618Z,4.45
2024-04-30T23:08:17.802Z,5.57
2024-04-30T23:10:19.637Z,6.53
2024-04-30T23:12:24.101Z,6.97
2024-04-30T23:14:26.180Z,7.10
2024-04-30T23:16:30.554Z,8.02
2024-04-30T23:18:32.426Z,5.03
2024-04-30T23:20:36.928Z,6.68
2024-04-30T23:22:38.849Z,5.95
2024-04-30T23:24:46.287Z,6.35
2024-04-30T23:26:48.100Z,5.78
2024-04-30T23:28:52.558Z,6.40
2024-04-30T23:30:54.434Z,6.78
2024-04-30T23:32:59.036Z,4.95
2024-04-30T23:35:00.804Z,5.30
2024-04-30T23:37:07.850Z,6.82
2024-04-30T23:39:10.158Z,7.40
2024-04-30T23:41:17.616Z,7.32
2024-04-30T23:43:19.646Z,3.80
2024-04-30T23:45:24.051Z,6.78
2024-04-30T23:47:25.942Z,6.13
2024-04-30T23:49:30.754Z,8.23
2024-04-30T23:51:32.539Z,6.35
2024-04-30T23:53:37.537Z,6.22
2024-04-30T23:55:39.391Z,5.80
2024-04-30T23:57:46.441Z,7.18
2024-04-30T23:59:48.358Z,5.68
